Time;durP1;ratioP1;P1;durP2;ratioP2;P2;SDS_P1;SDS_P2;PMS_P1;PMS_P2;Temp;Humidity;BMP_temperature;BMP_pressure;BME280_temperature;BME280_humidity;BME280_pressure;Samples;Min_cycle;Max_cycle;Signal;HPM_P1;HPM_P2
2021/04/26 00:01:08;;;;;;;1.70;1.60;;;;;;;19.72;34.57;95773.72;5025677;28;20065;-61
2021/04/26 00:03:33;;;;;;;1.50;1.17;;;;;;;19.72;34.52;95779.97;5027186;28;20067;-62
2021/04/26 00:05:59;;;;;;;1.17;1.08;;;;;;;19.70;34.57;95774.00;5026616;28;20088;-61
2021/04/26 00:08:24;;;;;;;1.45;1.45;;;;;;;19.70;34.60;95776.72;5027631;28;20142;-63
2021/04/26 00:10:50;;;;;;;1.13;1.13;;;;;;;19.70;34.69;95779.44;5028182;28;20508;-61
2021/04/26 00:13:16;;;;;;;1.20;1.20;;;;;;;19.69;34.69;95774.28;5027180;28;20077;-61
2021/04/26 00:15:41;;;;;;;1.23;1.23;;;;;;;19.68;34.58;95768.06;5026201;28;20095;-62
2021/04/26 00:18:07;;;;;;;1.55;1.30;;;;;;;19.67;34.70;95771.84;5027067;28;20069;-61
2021/04/26 00:20:32;;;;;;;1.55;1.20;;;;;;;19.68;34.58;95783.53;5009387;28;20118;-62
2021/04/26 00:22:59;;;;;;;1.40;1.30;;;;;;;19.66;34.83;95767.53;5009315;28;20076;-62
2021/04/26 00:25:25;;;;;;;1.35;1.35;;;;;;;19.66;34.78;95770.25;4997286;28;20072;-62
2021/04/26 00:27:51;;;;;;;1.42;1.40;;;;;;;19.65;34.69;95763.19;5026609;28;20119;-60
2021/04/26 00:30:18;;;;;;;1.58;1.48;;;;;;;19.65;34.60;95765.91;5026372;28;20776;-60
2021/04/26 00:32:45;;;;;;;1.40;1.35;;;;;;;19.65;35.06;95765.91;5025427;28;20033;-61
2021/04/26 00:35:11;;;;;;;2.30;2.13;;;;;;;19.65;34.87;95765.91;5026962;28;20575;-62
2021/04/26 00:37:36;;;;;;;1.27;1.25;;;;;;;19.64;34.92;95758.88;5026159;28;20107;-61
2021/04/26 00:40:03;;;;;;;1.63;1.52;;;;;;;19.64;34.58;95758.88;5026696;28;20080;-61
2021/04/26 00:42:29;;;;;;;1.27;1.27;;;;;;;19.63;34.74;95760.75;5025373;28;20079;-61
2021/04/26 00:44:55;;;;;;;1.35;1.35;;;;;;;19.62;34.65;95759.16;5042646;28;20041;-61
2021/04/26 00:47:20;;;;;;;1.50;1.40;;;;;;;19.61;34.65;95757.53;5046058;28;20057;-61
2021/04/26 00:49:46;;;;;;;2.28;1.60;;;;;;;19.61;34.80;95756.72;5043715;28;20094;-62
2021/04/26 00:52:11;;;;;;;2.65;1.48;;;;;;;19.60;35.02;95745.06;5046437;28;20095;-61
2021/04/26 00:54:37;;;;;;;1.10;1.10;;;;;;;19.60;35.05;95741.53;5045206;28;20567;-61
2021/04/26 00:57:03;;;;;;;1.30;1.17;;;;;;;19.59;34.97;95739.91;5045102;28;20148;-59
2021/04/26 00:59:28;;;;;;;1.38;1.27;;;;;;;19.59;34.81;95731.75;5044896;28;20087;-61
2021/04/26 01:01:54;;;;;;;1.33;1.30;;;;;;;19.59;34.77;95731.75;5044406;28;20092;-62
2021/04/26 01:04:19;;;;;;;1.35;1.27;;;;;;;19.58;34.90;95735.59;5045712;28;20092;-61
2021/04/26 01:06:45;;;;;;;1.40;1.30;;;;;;;19.56;34.96;95735.88;5045693;28;20041;-61
2021/04/26 01:09:11;;;;;;;1.55;1.45;;;;;;;19.56;35.07;95735.88;5045809;28;20606;-61
2021/04/26 01:11:44;;;;;;;1.48;1.38;;;;;;;19.56;35.00;95737.78;5046155;28;20540;-61
2021/04/26 01:14:36;;;;;;;1.30;1.30;;;;;;;19.55;34.89;95744.31;5044965;28;20057;-61
2021/04/26 01:17:05;;;;;;;1.40;1.30;;;;;;;19.55;34.94;95750.53;5044520;28;20045;-61
2021/04/26 01:19:39;;;;;;;1.85;1.52;;;;;;;19.53;34.91;95750.03;5044348;28;20057;-61
2021/04/26 01:22:36;;;;;;;1.40;1.30;;;;;;;19.53;35.19;95732.94;5045472;28;20044;-62
2021/04/26 01:25:03;;;;;;;1.60;1.50;;;;;;;19.53;35.01;95744.59;5045427;28;20064;-61
2021/04/26 01:27:47;;;;;;;1.20;1.20;;;;;;;19.52;35.19;95731.34;5048055;28;20045;-61
2021/04/26 01:30:17;;;;;;;1.55;1.55;;;;;;;19.51;35.31;95733.22;5045010;28;20048;-61
2021/04/26 01:32:49;;;;;;;1.42;1.33;;;;;;;19.51;35.43;95743.28;5045607;28;20071;-62
2021/04/26 01:35:19;;;;;;;1.38;1.20;;;;;;;19.49;35.45;95740.84;5044476;28;20048;-62
2021/04/26 01:37:47;;;;;;;2.55;1.80;;;;;;;19.51;35.40;95740.56;5043713;28;20049;-63
2021/04/26 01:40:13;;;;;;;1.40;1.30;;;;;;;19.49;35.14;95743.56;5044170;28;20079;-61
2021/04/26 01:42:41;;;;;;;1.52;1.42;;;;;;;19.50;35.34;95741.69;5044167;28;20527;-62
2021/04/26 01:45:09;;;;;;;1.55;1.45;;;;;;;19.49;35.47;95737.34;5026092;28;20049;-62
2021/04/26 01:47:35;;;;;;;1.38;1.33;;;;;;;19.49;35.69;95734.63;5023724;28;20107;-62
2021/04/26 01:50:00;;;;;;;1.77;1.30;;;;;;;19.48;35.62;95739.25;5007256;28;20057;-61
2021/04/26 01:52:26;;;;;;;1.50;1.40;;;;;;;19.47;35.60;95737.63;5007221;28;20420;-61
2021/04/26 01:54:53;;;;;;;1.17;1.17;;;;;;;19.47;35.37;95724.03;5008058;28;20217;-62
2021/04/26 01:57:19;;;;;;;1.48;1.23;;;;;;;19.47;35.46;95726.75;5007646;28;20887;-60
2021/04/26 01:59:45;;;;;;;1.60;1.50;;;;;;;19.46;35.42;95721.63;5007242;28;20136;-62
2021/04/26 02:02:10;;;;;;;1.38;1.02;;;;;;;19.46;35.63;95721.63;5007624;28;20099;-61
2021/04/26 02:04:36;;;;;;;1.30;1.30;;;;;;;19.47;35.62;95728.66;5025173;28;20071;-60
2021/04/26 02:07:01;;;;;;;1.40;1.40;;;;;;;19.46;35.65;95721.63;5025099;28;20081;-62
2021/04/26 02:09:28;;;;;;;1.30;1.30;;;;;;;19.44;35.59;95722.72;5025048;28;20052;-61
2021/04/26 02:11:55;;;;;;;1.30;1.23;;;;;;;19.46;35.24;95718.91;5006536;28;20107;-60
2021/04/26 02:14:21;;;;;;;1.55;1.45;;;;;;;19.43;35.38;95715.69;5024928;28;20063;-61
2021/04/26 02:16:47;;;;;;;1.67;1.58;;;;;;;19.44;35.39;95714.56;5023935;28;20053;-62
2021/04/26 02:19:12;;;;;;;1.75;1.23;;;;;;;19.43;35.47;95707.53;5023275;28;20128;-62
2021/04/26 02:21:41;;;;;;;2.40;1.75;;;;;;;19.42;35.62;95705.09;5024632;28;20538;-62
2021/04/26 02:24:08;;;;;;;1.30;1.30;;;;;;;19.41;35.62;95712.44;5024402;28;20041;-62
2021/04/26 02:26:34;;;;;;;1.55;1.23;;;;;;;19.42;35.88;95713.25;5027413;28;20037;-61
2021/04/26 02:28:59;;;;;;;1.27;1.23;;;;;;;19.41;35.76;95709.75;5034173;28;20101;-61
2021/04/26 02:31:25;;;;;;;1.38;1.35;;;;;;;19.40;35.98;95710.81;5025188;28;20554;-61
2021/04/26 02:34:19;;;;;;;1.48;1.40;;;;;;;19.39;35.65;95725.50;5007773;28;20118;-62
2021/04/26 02:36:47;;;;;;;1.90;1.27;;;;;;;19.39;35.60;95713.84;5023381;28;20048;-61
2021/04/26 02:39:13;;;;;;;1.83;1.73;;;;;;;19.39;36.04;95719.28;5007255;28;20507;-61
2021/04/26 02:41:40;;;;;;;1.38;1.27;;;;;;;19.37;35.82;95706.00;5006524;28;20077;-61
2021/04/26 02:44:12;;;;;;;1.40;1.30;;;;;;;19.37;36.06;95703.28;5016245;28;20063;-62
2021/04/26 02:46:37;;;;;;;1.50;1.40;;;;;;;19.38;36.00;95704.06;5043375;28;20060;-61
2021/04/26 02:49:03;;;;;;;1.15;1.10;;;;;;;19.38;35.99;95709.50;5043380;28;20088;-61
2021/04/26 02:51:30;;;;;;;1.42;1.40;;;;;;;19.37;36.04;95718.78;5042861;28;20407;-62
2021/04/26 02:53:55;;;;;;;1.85;1.30;;;;;;;19.37;35.89;95713.34;5020200;28;20037;-61
2021/04/26 02:56:21;;;;;;;1.40;1.30;;;;;;;19.36;36.06;95703.56;5017382;28;20136;-62
2021/04/26 02:58:50;;;;;;;1.85;1.30;;;;;;;19.36;36.14;95700.84;5026094;28;20044;-62
2021/04/26 03:01:16;;;;;;;3.03;1.40;;;;;;;19.36;35.78;95700.84;5042652;28;20076;-61
2021/04/26 03:03:42;;;;;;;1.25;1.23;;;;;;;19.33;35.97;95694.09;5026249;28;20128;-61
2021/04/26 03:06:08;;;;;;;1.20;1.20;;;;;;;19.33;35.97;95688.66;5009860;28;20071;-61
2021/04/26 03:08:33;;;;;;;1.45;1.35;;;;;;;19.33;36.12;95696.81;5026531;28;20149;-62
2021/04/26 03:10:59;;;;;;;1.30;1.30;;;;;;;19.33;35.97;95691.38;5042494;28;20254;-61
2021/04/26 03:13:28;;;;;;;1.40;1.30;;;;;;;19.32;35.99;95692.47;5026051;28;20396;-61
2021/04/26 03:15:54;;;;;;;1.40;1.35;;;;;;;19.31;36.13;95682.72;5044018;28;20053;-63
2021/04/26 03:18:20;;;;;;;1.45;1.30;;;;;;;19.32;36.01;95684.31;5045032;28;20049;-61
2021/04/26 03:20:46;;;;;;;1.23;1.23;;;;;;;19.32;35.97;95676.16;5042654;28;20073;-62
2021/04/26 03:23:15;;;;;;;1.27;1.23;;;;;;;19.30;35.96;95681.09;5042104;28;20051;-61
2021/04/26 03:25:40;;;;;;;1.70;1.60;;;;;;;19.31;35.92;95680.00;5044361;28;20375;-63
2021/04/26 03:28:06;;;;;;;1.40;1.30;;;;;;;19.30;36.14;95677.56;5042451;28;20584;-62
2021/04/26 03:30:32;;;;;;;1.73;1.30;;;;;;;19.31;35.99;95684.63;5031102;28;20068;-62
2021/04/26 03:32:57;;;;;;;1.88;1.17;;;;;;;19.30;35.93;95691.16;5027452;28;20131;-61
2021/04/26 03:35:23;;;;;;;1.42;1.33;;;;;;;19.29;35.93;95686.84;5026555;28;20148;-62
2021/04/26 03:37:50;;;;;;;1.40;1.33;;;;;;;19.29;35.98;95681.41;5026252;28;20136;-62
2021/04/26 03:40:20;;;;;;;2.20;1.67;;;;;;;19.29;35.84;95678.69;5025903;28;20049;-63
2021/04/26 03:42:46;;;;;;;1.52;1.42;;;;;;;19.28;35.86;95680.56;5027001;28;20041;-62
2021/04/26 03:45:16;;;;;;;1.48;1.48;;;;;;;19.27;36.01;95683.59;5024968;28;20091;-61
2021/04/26 03:47:42;;;;;;;1.45;1.35;;;;;;;19.26;35.95;95677.34;5027542;28;20084;-61
2021/04/26 03:50:09;;;;;;;1.50;1.40;;;;;;;19.27;36.05;95670.03;5026255;28;20076;-62
2021/04/26 03:52:34;;;;;;;1.33;1.30;;;;;;;19.26;35.78;95666.47;5042656;28;20046;-62
2021/04/26 03:55:00;;;;;;;1.70;1.60;;;;;;;19.26;35.93;95676.53;5025773;28;20123;-62
2021/04/26 03:57:26;;;;;;;1.50;1.40;;;;;;;19.22;36.05;95666.28;5027162;28;20120;-62
2021/04/26 03:59:51;;;;;;;1.30;1.30;;;;;;;19.24;36.18;95661.38;5026908;28;20144;-62
2021/04/26 04:02:17;;;;;;;2.28;2.08;;;;;;;19.23;36.05;95654.31;5026679;28;20080;-62
2021/04/26 04:04:42;;;;;;;1.20;1.20;;;;;;;19.22;36.06;95651.88;5025811;28;20791;-61
2021/04/26 04:07:08;;;;;;;1.20;1.20;;;;;;;19.22;35.94;95660.84;5026897;28;20037;-62
2021/04/26 04:09:34;;;;;;;1.52;1.17;;;;;;;19.22;36.11;95660.03;5026081;28;20076;-62
2021/04/26 04:11:59;;;;;;;1.30;1.20;;;;;;;19.22;36.01;95655.41;5027171;28;20135;-61
2021/04/26 04:14:25;;;;;;;1.40;1.33;;;;;;;19.22;36.19;95660.03;5027825;28;20051;-61
2021/04/26 04:16:51;;;;;;;1.10;1.10;;;;;;;19.22;35.95;95655.41;5027500;28;20069;-62
2021/04/26 04:19:16;;;;;;;1.40;1.40;;;;;;;19.20;35.69;95652.19;5026811;28;20098;-62
2021/04/26 04:21:42;;;;;;;1.50;1.40;;;;;;;19.20;35.90;95654.06;5026053;28;20076;-61
2021/04/26 04:24:08;;;;;;;1.08;1.08;;;;;;;19.19;36.08;95656.00;5042206;28;20099;-62
2021/04/26 04:26:33;;;;;;;1.35;1.30;;;;;;;19.20;36.11;95651.34;5026853;28;20080;-64
2021/04/26 04:28:59;;;;;;;1.33;1.33;;;;;;;19.20;36.24;95646.75;5012739;28;20172;-61
2021/04/26 04:31:25;;;;;;;1.00;1.00;;;;;;;19.18;35.93;95642.69;5027498;28;20084;-62
2021/04/26 04:33:51;;;;;;;1.23;1.23;;;;;;;19.18;35.98;95632.66;5042313;28;20154;-61
2021/04/26 04:36:17;;;;;;;1.58;1.48;;;;;;;19.18;35.93;95639.97;5024377;28;20115;-62
2021/04/26 04:38:42;;;;;;;1.27;1.27;;;;;;;19.17;36.02;95641.91;5025092;28;20150;-61
2021/04/26 04:41:08;;;;;;;1.40;1.30;;;;;;;19.18;36.10;95650.84;5025146;28;20076;-62
2021/04/26 04:43:33;;;;;;;1.50;1.40;;;;;;;19.16;35.90;95651.16;5031017;28;20523;-61
2021/04/26 04:45:59;;;;;;;1.40;1.40;;;;;;;19.16;36.19;95639.50;5045891;28;20159;-61
2021/04/26 04:48:25;;;;;;;1.48;1.40;;;;;;;19.16;35.98;95639.50;5046570;28;20519;-61
2021/04/26 04:50:50;;;;;;;1.20;1.20;;;;;;;19.16;36.40;95640.31;5044805;28;20056;-61
2021/04/26 04:53:16;;;;;;;1.70;1.60;;;;;;;19.14;36.14;95631.63;5046439;28;20322;-61
2021/04/26 04:55:41;;;;;;;1.40;1.40;;;;;;;19.13;36.14;95630.00;5045137;28;20056;-62
2021/04/26 04:58:07;;;;;;;1.55;1.00;;;;;;;19.13;36.16;95640.88;5044640;28;20105;-61
2021/04/26 05:00:33;;;;;;;1.60;1.48;;;;;;;19.13;36.00;95640.06;5043070;28;20461;-63
2021/04/26 05:02:58;;;;;;;1.40;1.40;;;;;;;19.13;36.08;95642.78;5027016;28;20088;-61
2021/04/26 05:05:24;;;;;;;1.70;1.60;;;;;;;19.12;36.23;95644.69;5026554;28;20455;-61
2021/04/26 05:07:50;;;;;;;1.20;1.20;;;;;;;19.11;36.03;95648.50;5026179;28;20059;-61
2021/04/26 05:10:15;;;;;;;1.50;1.40;;;;;;;19.12;36.26;95654.75;5024468;28;20800;-61
2021/04/26 05:12:41;;;;;;;1.35;1.30;;;;;;;19.11;36.42;95650.41;5025805;28;20083;-62
2021/04/26 05:15:07;;;;;;;3.22;1.20;;;;;;;19.10;36.13;95654.25;5024828;28;20056;-61
2021/04/26 05:17:33;;;;;;;1.35;1.30;;;;;;;19.11;36.18;95653.13;5025816;28;20127;-61
2021/04/26 05:19:59;;;;;;;2.70;1.83;;;;;;;19.08;36.16;95651.81;5025091;28;20508;-61
2021/04/26 05:22:25;;;;;;;2.25;1.48;;;;;;;19.09;36.27;95660.75;5025458;28;20138;-61
2021/04/26 05:24:50;;;;;;;1.25;1.23;;;;;;;19.08;36.55;95656.44;5024234;28;20079;-62
2021/04/26 05:27:16;;;;;;;1.30;1.20;;;;;;;19.08;36.19;95651.00;5024400;28;20278;-61
2021/04/26 05:29:41;;;;;;;1.40;1.30;;;;;;;19.08;36.17;95653.72;5025292;28;20076;-62
2021/04/26 05:32:07;;;;;;;1.30;1.30;;;;;;;19.08;36.35;95648.28;5007557;28;20084;-62
2021/04/26 05:34:33;;;;;;;1.90;1.80;;;;;;;19.06;36.18;95643.16;5024720;28;20131;-62
2021/04/26 05:36:58;;;;;;;2.08;1.50;;;;;;;19.06;36.39;95651.28;5024935;28;20053;-62
2021/04/26 05:39:24;;;;;;;1.98;1.30;;;;;;;19.06;36.20;95653.19;5024673;28;20156;-63
2021/04/26 05:41:49;;;;;;;1.85;1.63;;;;;;;19.05;36.03;95652.38;5025447;28;20152;-62
2021/04/26 05:44:15;;;;;;;2.05;1.25;;;;;;;19.04;36.29;95653.50;5018072;28;20049;-62
2021/04/26 05:46:40;;;;;;;1.60;1.50;;;;;;;19.03;36.23;95657.28;5045606;28;20099;-61
2021/04/26 05:49:06;;;;;;;1.40;1.40;;;;;;;19.03;36.26;95657.28;5043643;28;20134;-62
2021/04/26 05:51:32;;;;;;;2.60;1.65;;;;;;;19.03;36.17;95647.25;5044230;28;20084;-61
2021/04/26 05:53:57;;;;;;;1.50;1.33;;;;;;;19.02;36.47;95642.91;5043040;28;20068;-63
2021/04/26 05:56:23;;;;;;;1.50;1.48;;;;;;;19.01;36.53;95638.59;5045315;28;20061;-62
2021/04/26 05:58:49;;;;;;;1.42;1.40;;;;;;;19.03;36.32;95649.16;5044958;28;20140;-61
2021/04/26 06:01:15;;;;;;;4.00;1.20;;;;;;;19.02;36.36;95642.91;5027189;28;20063;-62
2021/04/26 06:03:41;;;;;;;1.77;1.67;;;;;;;19.01;36.46;95649.47;5042425;28;20049;-62
2021/04/26 06:06:06;;;;;;;1.63;1.60;;;;;;;19.03;36.41;95641.00;5044471;28;20064;-62
2021/04/26 06:08:32;;;;;;;1.70;1.60;;;;;;;19.01;36.41;95644.03;5010310;28;20128;-60
2021/04/26 06:10:58;;;;;;;1.40;1.30;;;;;;;19.02;36.59;95645.63;5044800;28;20044;-60
2021/04/26 06:13:23;;;;;;;1.38;1.23;;;;;;;19.03;36.51;95641.00;5044846;28;20047;-62
2021/04/26 06:15:49;;;;;;;2.22;1.65;;;;;;;19.02;36.34;95632.06;5043951;28;20146;-62
2021/04/26 06:18:16;;;;;;;1.67;1.58;;;;;;;19.01;36.43;95633.16;5043077;28;20056;-62
2021/04/26 06:20:42;;;;;;;2.67;1.70;;;;;;;19.02;36.41;95636.69;5044023;28;20407;-61
2021/04/26 06:23:08;;;;;;;2.17;1.65;;;;;;;19.01;36.63;95646.75;5045325;28;20516;-61
2021/04/26 06:25:35;;;;;;;2.65;1.70;;;;;;;19.02;36.57;95636.69;5044606;28;20039;-61
2021/04/26 06:28:00;;;;;;;1.83;1.70;;;;;;;19.01;36.99;95635.88;5044434;28;20061;-61
2021/04/26 06:30:27;;;;;;;1.40;1.40;;;;;;;19.01;36.66;95633.16;5044396;28;20179;-61
2021/04/26 06:32:52;;;;;;;1.85;1.75;;;;;;;19.01;36.79;95625.03;5044214;28;20102;-61
2021/04/26 06:35:18;;;;;;;2.75;1.63;;;;;;;19.00;36.60;95626.13;5045194;28;20557;-61
2021/04/26 06:37:44;;;;;;;1.75;1.65;;;;;;;19.01;36.72;95626.91;5043634;28;20055;-61
2021/04/26 06:40:10;;;;;;;1.77;1.63;;;;;;;18.99;36.53;95621.81;5026464;28;20049;-61
2021/04/26 06:42:36;;;;;;;1.80;1.70;;;;;;;18.99;36.64;95619.09;5033306;28;20535;-61
2021/04/26 06:45:01;;;;;;;1.48;1.38;;;;;;;18.99;36.48;95613.66;5039785;28;20045;-60
2021/04/26 06:47:27;;;;;;;1.65;1.52;;;;;;;18.99;36.54;95624.50;5043038;28;20111;-61
2021/04/26 06:49:53;;;;;;;1.25;1.25;;;;;;;18.99;36.63;95620.97;5044297;28;20048;-62
2021/04/26 06:52:18;;;;;;;1.70;1.60;;;;;;;18.98;36.73;95622.09;5043403;28;20133;-62
2021/04/26 06:54:46;;;;;;;1.52;1.42;;;;;;;18.99;36.67;95621.81;5044205;28;20057;-61
2021/04/26 06:57:12;;;;;;;1.52;1.30;;;;;;;19.00;36.66;95619.88;5043460;28;20057;-62
2021/04/26 06:59:37;;;;;;;1.60;1.50;;;;;;;18.99;36.61;95619.09;5043625;28;20091;-61
2021/04/26 07:02:03;;;;;;;1.52;1.42;;;;;;;19.00;37.05;95619.88;5043495;28;20049;-61
2021/04/26 07:04:28;;;;;;;1.60;1.58;;;;;;;19.00;37.04;95604.41;5042993;28;20103;-62
2021/04/26 07:06:54;;;;;;;2.08;1.70;;;;;;;19.01;37.35;95606.03;5045083;28;20055;-62
2021/04/26 07:09:19;;;;;;;5.32;2.50;;;;;;;19.03;37.51;95594.88;5041471;28;20142;-63
2021/04/26 07:11:45;;;;;;;4.10;1.85;;;;;;;19.04;37.76;95600.00;5043911;28;20559;-61
2021/04/26 07:14:11;;;;;;;4.63;1.88;;;;;;;19.03;37.54;95595.69;5043683;28;20073;-61
2021/04/26 07:16:36;;;;;;;3.75;1.98;;;;;;;19.06;37.31;95590.78;5042567;28;20040;-61
2021/04/26 07:19:02;;;;;;;3.67;1.80;;;;;;;19.06;37.42;95586.16;5044162;28;20144;-59
2021/04/26 07:21:28;;;;;;;4.80;2.22;;;;;;;19.07;37.61;95587.75;5043358;28;20548;-60
2021/04/26 07:23:53;;;;;;;7.88;2.03;;;;;;;19.08;37.94;95585.88;5044055;28;20053;-63
2021/04/26 07:26:19;;;;;;;7.63;1.85;;;;;;;19.09;37.41;95579.31;5043971;28;20508;-62
2021/04/26 07:28:44;;;;;;;5.60;1.90;;;;;;;19.06;37.72;95577.22;5043224;28;20088;-61
2021/04/26 07:31:10;;;;;;;3.20;1.98;;;;;;;19.11;37.40;95582.56;5043024;28;20693;-61
2021/04/26 07:33:36;;;;;;;3.70;1.90;;;;;;;19.10;37.33;95573.59;5042324;28;20893;-62
2021/04/26 07:36:01;;;;;;;4.13;1.98;;;;;;;19.11;37.37;95571.69;5043050;28;20072;-61
2021/04/26 07:38:27;;;;;;;6.47;2.10;;;;;;;19.12;37.36;95563.25;5041577;28;20049;-62
2021/04/26 07:40:53;;;;;;;5.28;1.75;;;;;;;19.13;37.14;95567.56;5041359;28;20535;-63
2021/04/26 07:43:18;;;;;;;9.90;3.03;;;;;;;19.13;37.19;95564.88;5038784;28;20153;-61
2021/04/26 07:45:44;;;;;;;7.88;2.05;;;;;;;19.15;37.53;95565.38;5035119;28;20056;-60
2021/04/26 07:48:10;;;;;;;4.78;1.98;;;;;;;19.15;37.36;95553.72;5041852;28;20103;-62
2021/04/26 07:50:38;;;;;;;2.28;2.00;;;;;;;19.15;37.43;95549.09;5040625;28;20049;-61
2021/04/26 07:53:04;;;;;;;7.03;2.28;;;;;;;19.17;37.03;95560.47;5007653;28;20064;-62
2021/04/26 07:55:29;;;;;;;4.80;2.40;;;;;;;19.18;37.35;95561.25;5039395;28;20080;-60
2021/04/26 07:57:55;;;;;;;9.45;3.22;;;;;;;19.19;37.87;95560.16;5038557;28;20122;-61
2021/04/26 08:00:21;;;;;;;6.05;3.40;;;;;;;19.21;37.83;95557.97;5042524;28;20544;-61
2021/04/26 08:02:47;;;;;;;7.53;3.47;;;;;;;19.21;37.80;95557.97;5042776;28;20824;-61
2021/04/26 08:05:12;;;;;;;13.88;3.45;;;;;;;19.22;37.47;95557.69;5041594;28;20045;-60
2021/04/26 08:07:38;;;;;;;8.00;3.25;;;;;;;19.23;37.85;95555.78;5042858;28;20045;-62
2021/04/26 08:10:04;;;;;;;5.88;2.95;;;;;;;19.24;37.88;95560.91;5041406;28;20052;-62
2021/04/26 08:12:30;;;;;;;15.52;3.40;;;;;;;19.26;37.76;95566.03;5041447;28;20044;-61
2021/04/26 08:14:55;;;;;;;5.57;2.92;;;;;;;19.26;37.72;95559.78;5044281;28;20133;-62
2021/04/26 08:17:21;;;;;;;5.82;3.08;;;;;;;19.28;37.91;95565.75;5045724;28;20823;-61
2021/04/26 08:19:46;;;;;;;7.18;3.28;;;;;;;19.28;37.95;95573.88;5029157;28;20298;-60
2021/04/26 08:22:12;;;;;;;4.22;3.05;;;;;;;19.27;37.54;95562.22;5038241;28;20045;-61
2021/04/26 08:24:38;;;;;;;5.97;2.85;;;;;;;19.28;37.51;95560.31;5041265;28;20045;-61
2021/04/26 08:27:04;;;;;;;6.38;3.30;;;;;;;19.29;37.53;95557.31;5043450;28;20141;-63
2021/04/26 08:29:29;;;;;;;3.55;2.35;;;;;;;19.29;37.36;95564.66;5044296;28;20095;-62
2021/04/26 08:31:55;;;;;;;6.00;2.58;;;;;;;19.30;37.72;95563.53;5029599;28;20076;-61
2021/04/26 08:34:21;;;;;;;8.02;2.72;;;;;;;19.30;37.82;95572.47;5045330;28;20045;-61
2021/04/26 08:36:47;;;;;;;6.72;2.90;;;;;;;19.31;38.14;95571.41;5046187;28;20792;-62
2021/04/26 08:39:15;;;;;;;3.92;2.70;;;;;;;19.32;38.40;95572.19;5044506;28;20080;-61
2021/04/26 08:41:41;;;;;;;9.68;3.60;;;;;;;19.32;38.19;95577.63;5033861;28;20526;-61
2021/04/26 08:44:06;;;;;;;5.22;2.65;;;;;;;19.32;38.12;95572.19;5044683;28;20493;-61
2021/04/26 08:46:32;;;;;;;5.35;2.55;;;;;;;19.33;37.81;95569.19;5044512;28;20049;-61
2021/04/26 08:48:58;;;;;;;5.03;2.42;;;;;;;19.33;37.47;95579.25;5046535;28;20472;-63
2021/04/26 08:51:23;;;;;;;3.58;2.30;;;;;;;19.34;37.78;95575.41;5044485;28;20159;-62
2021/04/26 08:53:49;;;;;;;2.92;2.45;;;;;;;19.33;37.96;95577.34;5041989;28;20226;-61
2021/04/26 08:56:15;;;;;;;6.43;2.45;;;;;;;19.35;38.24;95572.41;5044501;28;21425;-61
2021/04/26 08:58:41;;;;;;;22.65;4.85;;;;;;;19.36;38.36;95573.22;5045488;28;20052;-61
2021/04/26 09:01:06;;;;;;;6.18;2.42;;;;;;;19.36;38.21;95576.72;5044465;28;20157;-62
2021/04/26 09:03:36;;;;;;;4.68;2.70;;;;;;;19.36;37.99;95571.31;5043959;28;20067;-62
2021/04/26 09:06:02;;;;;;;3.92;2.67;;;;;;;19.37;37.90;95572.94;5043702;28;20044;-61
2021/04/26 09:08:28;;;;;;;6.50;3.00;;;;;;;19.36;37.97;95568.59;5026466;28;20065;-60
2021/04/26 09:11:00;;;;;;;5.72;3.17;;;;;;;19.38;37.83;95569.09;5045368;28;20040;-58
2021/04/26 09:13:41;;;;;;;7.65;4.93;;;;;;;19.39;38.67;95573.44;5045094;28;20057;-61
2021/04/26 09:16:26;;;;;;;8.02;4.22;;;;;;;19.40;38.95;95564.19;5044297;28;20060;-60
2021/04/26 09:18:58;;;;;;;6.88;4.72;;;;;;;19.41;38.87;95557.66;5023786;28;20049;-61
2021/04/26 09:21:34;;;;;;;8.23;4.40;;;;;;;19.42;39.20;95558.47;5033240;28;20599;-61
2021/04/26 09:24:14;;;;;;;7.18;4.10;;;;;;;19.41;39.28;95556.88;5043304;28;20036;-62
2021/04/26 09:26:41;;;;;;;4.78;3.65;;;;;;;19.43;38.96;95549.19;5040898;28;20114;-61
2021/04/26 09:29:20;;;;;;;10.65;4.53;;;;;;;19.43;38.89;95551.91;5044131;28;20138;-62
2021/04/26 09:32:11;;;;;;;6.13;3.78;;;;;;;19.41;38.76;95546.78;5039758;28;21422;-61
2021/04/26 09:34:51;;;;;;;5.28;3.45;;;;;;;19.43;38.89;95541.03;5025481;28;20115;-59
2021/04/26 09:37:27;;;;;;;6.78;3.60;;;;;;;19.43;38.98;95533.72;5042142;28;20071;-61
2021/04/26 09:40:12;;;;;;;5.70;3.78;;;;;;;19.41;39.11;95533.22;5044655;28;20407;-62
2021/04/26 09:42:39;;;;;;;6.70;3.40;;;;;;;19.44;39.07;95532.63;5042467;28;20045;-60
2021/04/26 09:45:35;;;;;;;5.82;3.50;;;;;;;19.42;38.95;95526.66;5044584;28;20060;-61
2021/04/26 09:48:19;;;;;;;8.57;3.60;;;;;;;19.43;39.25;95528.31;5044068;28;20504;-61
2021/04/26 09:50:55;;;;;;;9.85;5.32;;;;;;;19.45;39.50;95527.97;5040976;28;20140;-60
2021/04/26 09:53:35;;;;;;;17.80;7.05;;;;;;;19.47;39.10;95527.69;5042793;28;20056;-60
2021/04/26 09:56:11;;;;;;;25.70;12.32;;;;;;;19.48;40.57;95515.75;5044635;28;20048;-61
2021/04/26 09:58:38;;;;;;;30.83;15.75;;;;;;;19.50;42.25;95518.97;5041501;28;20040;-62
2021/04/26 10:01:04;;;;;;;23.73;11.07;;;;;;;19.51;42.13;95512.41;5057512;28;20496;-62
2021/04/26 10:03:30;;;;;;;28.52;12.73;;;;;;;19.51;41.41;95505.06;5043739;28;20133;-60
2021/04/26 10:05:57;;;;;;;35.72;14.95;;;;;;;19.53;42.07;95502.06;5043306;28;20124;-61
2021/04/26 10:08:22;;;;;;;21.70;10.00;;;;;;;19.54;41.17;95503.69;5044383;28;20511;-62
2021/04/26 10:10:48;;;;;;;22.35;11.82;;;;;;;19.55;41.75;95499.84;5043701;28;20052;-62
2021/04/26 10:13:14;;;;;;;20.08;10.90;;;;;;;19.57;42.17;95493.00;5043299;28;20056;-62
2021/04/26 10:15:39;;;;;;;25.27;10.88;;;;;;;19.59;42.43;95493.50;5043954;28;20611;-63
2021/04/26 10:18:08;;;;;;;24.33;9.93;;;;;;;19.60;42.58;95483.47;5044139;28;20075;-61
2021/04/26 10:20:36;;;;;;;20.20;9.35;;;;;;;19.62;42.76;95482.06;5024760;28;20037;-60
2021/04/26 10:23:02;;;;;;;22.67;8.98;;;;;;;19.63;42.90;95478.22;5044941;28;20475;-61
2021/04/26 10:25:40;;;;;;;15.93;8.27;;;;;;;19.62;42.91;95473.91;5043832;28;20045;-61
2021/04/26 10:28:28;;;;;;;18.35;9.25;;;;;;;19.65;42.57;95464.34;5044878;28;20534;-60
2021/04/26 10:31:15;;;;;;;17.15;8.27;;;;;;;19.67;42.30;95456.72;5045775;28;20045;-60
2021/04/26 10:33:55;;;;;;;13.60;7.65;;;;;;;19.69;42.31;95451.78;5043403;28;20049;-62
2021/04/26 10:36:41;;;;;;;14.70;7.70;;;;;;;19.71;42.45;95459.69;5043933;28;20131;-61
2021/04/26 10:39:09;;;;;;;;;;;;;;;19.73;41.98;95452.81;5045041;28;20786;-61
2021/04/26 10:41:52;;;;;;;14.30;6.97;;;;;;;19.72;41.87;95448.47;5043408;28;19926;-61
2021/04/26 10:44:39;;;;;;;14.55;5.95;;;;;;;19.72;41.86;95439.53;5042475;28;20372;-61
2021/04/26 10:47:24;;;;;;;13.07;7.00;;;;;;;19.71;41.92;95438.75;5042511;28;20037;-59
2021/04/26 10:49:56;;;;;;;12.18;6.78;;;;;;;19.76;41.52;95438.63;5041194;28;20556;-60
2021/04/26 10:55:02;;;;;;;10.02;6.15;;;;;;;19.78;41.38;95419.31;5042692;28;20537;-58
2021/04/26 10:57:32;;;;;;;11.52;6.53;;;;;;;19.79;41.28;95423.66;5025618;28;20087;-60
2021/04/26 11:00:26;;;;;;;9.15;5.05;;;;;;;19.81;41.33;95413.28;5040088;28;20051;-60
2021/04/26 11:02:55;;;;;;;12.52;5.75;;;;;;;19.82;41.40;95409.44;5038161;28;20056;-58
2021/04/26 11:05:23;;;;;;;14.05;6.28;;;;;;;19.83;41.31;95403.72;5042472;28;20520;-61
2021/04/26 11:10:35;;;;;;;9.60;6.10;;;;;;;19.87;41.21;95392.22;5041113;28;20049;-61
2021/04/26 11:13:02;;;;;;;10.18;5.82;;;;;;;19.88;41.26;95393.84;5042533;28;20049;-60
2021/04/26 11:15:28;;;;;;;9.95;5.00;;;;;;;19.90;41.19;95397.06;5041238;28;20040;-59
2021/04/26 11:17:54;;;;;;;12.27;5.65;;;;;;;19.91;41.29;95385.09;5041395;28;20118;-59
2021/04/26 11:20:23;;;;;;;10.75;6.03;;;;;;;19.90;40.90;95392.44;5023714;28;20052;-61
2021/04/26 11:22:54;;;;;;;9.07;4.93;;;;;;;19.92;40.96;95394.88;5038160;28;20107;-63
2021/04/26 11:25:33;;;;;;;8.35;4.65;;;;;;;19.92;40.71;95397.59;5040383;28;20049;-61
2021/04/26 11:27:59;;;;;;;6.05;4.20;;;;;;;19.93;40.52;95393.75;5040041;28;20834;-60
2021/04/26 11:30:30;;;;;;;7.10;4.82;;;;;;;19.92;40.50;95395.66;5023116;28;20503;-61
2021/04/26 11:33:11;;;;;;;8.73;4.40;;;;;;;19.93;40.21;95393.75;5041059;28;20045;-58
2021/04/26 11:35:58;;;;;;;5.90;4.15;;;;;;;19.93;40.34;95399.19;5040587;28;20495;-61
2021/04/26 11:38:24;;;;;;;8.57;3.88;;;;;;;19.94;40.27;95406.25;5040648;28;20052;-60
2021/04/26 11:40:53;;;;;;;6.25;4.22;;;;;;;19.93;40.32;95399.19;5041038;28;20068;-61